Taugas — V2GS2 — position and weather

sailwx.info

Track history (hours):
 
Tides and Currents Weather Stations Pressure Air Temp Water Temp Dewpoint Dewpoint Depression Visibility Wind Speed Wind Dir Waves Ship Positions

Taugas

Last reported at 2018-Jun-16 11:31 UTC. Time now 2018-Jun-25 02:20 UTC.
Position N 35°37' W 013°30'.
Warning: this ship's position is 8 days out of date.

Length 146 m; draft 7.6 m.

Type: Tanker. MMSI: 304067000.

Date/timePositionNaut miles runAvg speedWind from/ knotsBaromVisibWave heightAir tempDewpointWater temp
2018-Jun-16 11:31N 35°37' W 013°30'012.4
2018-Jun-16 11:30N 35°37' W 013°30'10212.4
2018-Jun-16 03:16N 35°40' W 011°25'512.4
2018-Jun-16 02:50N 35°40' W 011°18'412.5
2018-Jun-16 02:30N 35°40' W 011°13'4912.4
2018-Jun-15 22:33N 35°40' W 010°12'112.2
2018-Jun-15 22:30N 35°40' W 010°12'712.2
2018-Jun-15 21:54N 35°41' W 010°03'511.8
2018-Jun-15 21:30N 35°41' W 009°57'611.7
2018-Jun-15 20:59N 35°41' W 009°50'611.8
2018-Jun-15 20:30N 35°41' W 009°42'611.6
2018-Jun-15 20:00N 35°41' W 009°35'611.7
2018-Jun-15 19:30N 35°42' W 009°28'611.8
2018-Jun-15 19:00N 35°42' W 009°21'611.8
2018-Jun-15 18:30N 35°42' W 009°14'612.2
2018-Jun-15 18:00N 35°43' W 009°06'612.2
2018-Jun-15 17:30N 35°43' W 008°59'812.4
2018-Jun-15 16:51N 35°44' W 008°49'1212.4
2018-Jun-15 15:52N 35°44' W 008°34'512.9
2018-Jun-15 15:30N 35°44' W 008°28'713.1
2018-Jun-15 15:00N 35°45' W 008°20'5113.3
2018-Jun-15 11:10N 35°49' W 007°17'7012.4
2018-Jun-15 05:32N 35°57' W 005°51'110.5
2018-Jun-15 05:29N 35°57' W 005°51'510.9
2018-Jun-15 05:00N 35°57' W 005°44'611.6
2018-Jun-15 04:31N 35°57' W 005°37'611.8
2018-Jun-15 04:01N 35°59' W 005°30'510.8
2018-Jun-15 03:31N 36°00' W 005°24'510.6
2018-Jun-15 03:01N 35°56' W 005°20'1 1.8
2018-Jun-15 02:28N 35°55' W 005°20'0 0.1
2018-Jun-15 01:58N 35°55' W 005°20'0 0.1
2018-Jun-15 01:28N 35°55' W 005°20'0 0.0
2018-Jun-15 00:58N 35°55' W 005°20'0 0.1
2018-Jun-15 00:28N 35°55' W 005°20'0 0.0
2018-Jun-14 23:58N 35°55' W 005°20'0 0.3
2018-Jun-14 23:28N 35°55' W 005°20'0 0.2
2018-Jun-14 22:58N 35°55' W 005°20'0 0.2
2018-Jun-14 22:28N 35°55' W 005°20'0 0.1
2018-Jun-14 21:58N 35°55' W 005°20'0 0.1
2018-Jun-14 21:28N 35°55' W 005°20'0 0.1
2018-Jun-14 20:58N 35°55' W 005°20'0 0.1
2018-Jun-14 20:28N 35°55' W 005°20'0 0.1
2018-Jun-14 19:58N 35°55' W 005°20'0 0.0
2018-Jun-14 19:28N 35°55' W 005°20'0 0.3
2018-Jun-14 18:58N 35°55' W 005°20'0 0.1
2018-Jun-14 18:28N 35°55' W 005°20'0 0.1
2018-Jun-14 17:58N 35°55' W 005°20'0 0.0
2018-Jun-14 17:28N 35°55' W 005°20'0 0.0
2018-Jun-14 16:58N 35°55' W 005°20'0 0.0
2018-Jun-14 16:28N 35°55' W 005°20'0 0.0
2018-Jun-14 15:58N 35°55' W 005°20'0 0.0
2018-Jun-14 15:28N 35°55' W 005°20'0 0.0
2018-Jun-14 14:58N 35°55' W 005°20'0 0.0
2018-Jun-14 14:28N 35°55' W 005°20'0 0.0
2018-Jun-14 13:58N 35°55' W 005°20'0 0.0
2018-Jun-14 13:28N 35°55' W 005°20'0 0.0
2018-Jun-14 12:58N 35°55' W 005°20'0 0.0
2018-Jun-14 12:28N 35°55' W 005°20'0 0.1
2018-Jun-14 11:56N 35°55' W 005°20'3 5.7
2018-Jun-14 11:30N 35°55' W 005°17'22111.8
2018-Jun-13 16:52N 36°35' W 000°48'512.9
2018-Jun-13 16:30N 36°36' W 000°42'713.0
2018-Jun-13 16:00N 36°37' W 000°34'713.0
2018-Jun-13 15:26N 36°38' W 000°25'2512.7
2018-Jun-13 13:27N 36°41' E 000°06'612.7
2018-Jun-13 13:00N 36°42' E 000°13'712.8
2018-Jun-13 12:30N 36°43' E 000°21'14312.0
2018-Jun-13 00:33N 37°01' E 003°19'112.3
2018-Jun-13 00:30N 37°02' E 003°20'612.3
2018-Jun-13 00:00N 37°02' E 003°28'612.0
2018-Jun-12 23:30N 37°03' E 003°35'43112.1
2018-Jun-11 11:57N 36°57' E 012°35'613.3
2018-Jun-11 11:30N 36°55' E 012°42'713.3
2018-Jun-11 11:00N 36°53' E 012°50'713.2
2018-Jun-11 10:30N 36°51' E 012°58'613.1
2018-Jun-11 10:00N 36°49' E 013°05'713.3
2018-Jun-11 09:30N 36°47' E 013°13'713.1
2018-Jun-11 09:00N 36°45' E 013°21'713.0
2018-Jun-11 08:30N 36°44' E 013°29'2414.6
2018-Jun-11 06:50N 36°35' E 013°58'514.2
2018-Jun-11 06:30N 36°34' E 014°03'713.5
2018-Jun-11 06:00N 36°32' E 014°11'  
2018-Jun-06 23:30N 43°43' E 013°60'812.7
2018-Jun-06 22:52N 43°50' E 013°54'512.6
2018-Jun-06 22:30N 43°53' E 013°49'612.5
2018-Jun-06 22:00N 43°57' E 013°42'612.6
2018-Jun-06 21:30N 44°01' E 013°35'3412.2
2018-Jun-06 18:43N 44°20' E 012°56'612.2
2018-Jun-06 18:13N 44°23' E 012°49'312.5
2018-Jun-06 18:00N 44°24' E 012°45'612.6
2018-Jun-06 17:30N 44°27' E 012°37'  
Track history (hours):
 
Tides and Currents Weather Stations Pressure Air Temp Water Temp Dewpoint Dewpoint Depression Visibility Wind Speed Wind Dir Waves Ship Positions

Taugas

Last reported at 2018-Jun-16 11:31 UTC. Time now 2018-Jun-25 02:20 UTC.
Position N 35°37' W 013°30'.
Warning: this ship's position is 8 days out of date.

Length 146 m; draft 7.6 m.

Type: Tanker. MMSI: 304067000.

Date/timePositionNaut miles runAvg speedWind from/ knotsBaromVisibWave heightAir tempDewpointWater temp
2018-Jun-16 11:31N 35°37' W 013°30'012.4
2018-Jun-16 11:30N 35°37' W 013°30'10212.4
2018-Jun-16 03:16N 35°40' W 011°25'512.4
2018-Jun-16 02:50N 35°40' W 011°18'412.5
2018-Jun-16 02:30N 35°40' W 011°13'4912.4
2018-Jun-15 22:33N 35°40' W 010°12'112.2
2018-Jun-15 22:30N 35°40' W 010°12'712.2
2018-Jun-15 21:54N 35°41' W 010°03'511.8
2018-Jun-15 21:30N 35°41' W 009°57'611.7
2018-Jun-15 20:59N 35°41' W 009°50'611.8
2018-Jun-15 20:30N 35°41' W 009°42'611.6
2018-Jun-15 20:00N 35°41' W 009°35'611.7
2018-Jun-15 19:30N 35°42' W 009°28'611.8
2018-Jun-15 19:00N 35°42' W 009°21'611.8
2018-Jun-15 18:30N 35°42' W 009°14'612.2
2018-Jun-15 18:00N 35°43' W 009°06'612.2
2018-Jun-15 17:30N 35°43' W 008°59'812.4
2018-Jun-15 16:51N 35°44' W 008°49'1212.4
2018-Jun-15 15:52N 35°44' W 008°34'512.9
2018-Jun-15 15:30N 35°44' W 008°28'713.1
2018-Jun-15 15:00N 35°45' W 008°20'5113.3
2018-Jun-15 11:10N 35°49' W 007°17'7012.4
2018-Jun-15 05:32N 35°57' W 005°51'110.5
2018-Jun-15 05:29N 35°57' W 005°51'510.9
2018-Jun-15 05:00N 35°57' W 005°44'611.6
2018-Jun-15 04:31N 35°57' W 005°37'611.8
2018-Jun-15 04:01N 35°59' W 005°30'510.8
2018-Jun-15 03:31N 36°00' W 005°24'510.6
2018-Jun-15 03:01N 35°56' W 005°20'1 1.8
2018-Jun-15 02:28N 35°55' W 005°20'0 0.1
2018-Jun-15 01:58N 35°55' W 005°20'0 0.1
2018-Jun-15 01:28N 35°55' W 005°20'0 0.0
2018-Jun-15 00:58N 35°55' W 005°20'0 0.1
2018-Jun-15 00:28N 35°55' W 005°20'0 0.0
2018-Jun-14 23:58N 35°55' W 005°20'0 0.3
2018-Jun-14 23:28N 35°55' W 005°20'0 0.2
2018-Jun-14 22:58N 35°55' W 005°20'0 0.2
2018-Jun-14 22:28N 35°55' W 005°20'0 0.1
2018-Jun-14 21:58N 35°55' W 005°20'0 0.1
2018-Jun-14 21:28N 35°55' W 005°20'0 0.1
2018-Jun-14 20:58N 35°55' W 005°20'0 0.1
2018-Jun-14 20:28N 35°55' W 005°20'0 0.1
2018-Jun-14 19:58N 35°55' W 005°20'0 0.0
2018-Jun-14 19:28N 35°55' W 005°20'0 0.3
2018-Jun-14 18:58N 35°55' W 005°20'0 0.1
2018-Jun-14 18:28N 35°55' W 005°20'0 0.1
2018-Jun-14 17:58N 35°55' W 005°20'0 0.0
2018-Jun-14 17:28N 35°55' W 005°20'0 0.0
2018-Jun-14 16:58N 35°55' W 005°20'0 0.0
2018-Jun-14 16:28N 35°55' W 005°20'0 0.0
2018-Jun-14 15:58N 35°55' W 005°20'0 0.0
2018-Jun-14 15:28N 35°55' W 005°20'0 0.0
2018-Jun-14 14:58N 35°55' W 005°20'0 0.0
2018-Jun-14 14:28N 35°55' W 005°20'0 0.0
2018-Jun-14 13:58N 35°55' W 005°20'0 0.0
2018-Jun-14 13:28N 35°55' W 005°20'0 0.0
2018-Jun-14 12:58N 35°55' W 005°20'0 0.0
2018-Jun-14 12:28N 35°55' W 005°20'0 0.1
2018-Jun-14 11:56N 35°55' W 005°20'3 5.7
2018-Jun-14 11:30N 35°55' W 005°17'22111.8
2018-Jun-13 16:52N 36°35' W 000°48'512.9
2018-Jun-13 16:30N 36°36' W 000°42'713.0
2018-Jun-13 16:00N 36°37' W 000°34'713.0
2018-Jun-13 15:26N 36°38' W 000°25'2512.7
2018-Jun-13 13:27N 36°41' E 000°06'612.7
2018-Jun-13 13:00N 36°42' E 000°13'712.8
2018-Jun-13 12:30N 36°43' E 000°21'14312.0
2018-Jun-13 00:33N 37°01' E 003°19'112.3
2018-Jun-13 00:30N 37°02' E 003°20'612.3
2018-Jun-13 00:00N 37°02' E 003°28'612.0
2018-Jun-12 23:30N 37°03' E 003°35'43112.1
2018-Jun-11 11:57N 36°57' E 012°35'613.3
2018-Jun-11 11:30N 36°55' E 012°42'713.3
2018-Jun-11 11:00N 36°53' E 012°50'713.2
2018-Jun-11 10:30N 36°51' E 012°58'613.1
2018-Jun-11 10:00N 36°49' E 013°05'713.3
2018-Jun-11 09:30N 36°47' E 013°13'713.1
2018-Jun-11 09:00N 36°45' E 013°21'713.0
2018-Jun-11 08:30N 36°44' E 013°29'2414.6
2018-Jun-11 06:50N 36°35' E 013°58'514.2
2018-Jun-11 06:30N 36°34' E 014°03'713.5
2018-Jun-11 06:00N 36°32' E 014°11'  
2018-Jun-06 23:30N 43°43' E 013°60'812.7
2018-Jun-06 22:52N 43°50' E 013°54'512.6
2018-Jun-06 22:30N 43°53' E 013°49'612.5
2018-Jun-06 22:00N 43°57' E 013°42'612.6
2018-Jun-06 21:30N 44°01' E 013°35'3412.2
2018-Jun-06 18:43N 44°20' E 012°56'612.2
2018-Jun-06 18:13N 44°23' E 012°49'312.5
2018-Jun-06 18:00N 44°24' E 012°45'612.6
2018-Jun-06 17:30N 44°27' E 012°37'  

Dump ship's entire track history